Redditch, United Kingdom
Current Conditions -  °F | °C
As of 4:20 PM on Sunday 25 Jan 2015 (Local Time) from EGBB Reporting Station
Broken Clouds Broken Clouds  
Wind Chill: 42°   Ceiling: 1800
Heat Index: 46°   Visibility: 6mi
Dew Point: 41°   Wind: 8mph
Humidity: 81%   Direction: 240°WSW
Pressure: 30.3"   Gusts: NA
Location:  52.31°N, 1.94°W
Report Text: EGBB 251620Z 24007KT 210V270 9999 SCT012 BKN018 BKN022 08/05 Q1026
Loading
Personal Weather Stations






























Interactive Weather Map New forecast layout! Learn more

10-Day Weather Forecast

Advertisements
Track Severe Weather on mobile